Time;durP1;ratioP1;P1;durP2;ratioP2;P2;SDS_P1;SDS_P2;PMS_P1;PMS_P2;Temp;Humidity;BMP_temperature;BMP_pressure;BME280_temperature;BME280_humidity;BME280_pressure;Samples;Min_cycle;Max_cycle;Signal;HPM_P1;HPM_P2
2022/12/19 00:01:30;;;;;;;;;;;;;;;;;;4934570;29;1085;-73
2022/12/19 00:03:58;;;;;;;;;;;;;;;;;;4935562;29;1121;-71
2022/12/19 00:06:25;;;;;;;;;;;;;;;;;;4943156;29;1098;-74
2022/12/19 00:08:52;;;;;;;;;;;;;;;;;;4951245;28;1287;-74
2022/12/19 00:11:19;;;;;;;;;;;;;;;;;;4954836;28;1116;-73
2022/12/19 00:13:45;;;;;;;;;;;;;;;;;;4964107;28;1914;-73
2022/12/19 00:16:13;;;;;;;;;;;;;;;;;;4929575;28;1528;-74
2022/12/19 00:18:39;;;;;;;;;;;;;;;;;;4929094;29;1374;-73
2022/12/19 00:21:07;;;;;;;;;;;;;;;;;;4934584;29;1087;-72
2022/12/19 00:23:33;;;;;;;;;;;;;;;;;;4919293;29;1085;-72
2022/12/19 00:26:06;;;;;;;;;;;;;;;;;;4919803;29;1093;-72
2022/12/19 00:28:32;;;;;;;;;;;;;;;;;;4934365;29;1315;-73
2022/12/19 00:30:59;;;;;;;;;;;;;;;;;;4934429;29;1087;-73
2022/12/19 00:33:25;;;;;;;;;;;;;;;;;;4919010;29;1968;-73
2022/12/19 00:35:56;;;;;;;;;;;;;;;;;;4940446;29;1005;-72
2022/12/19 00:38:24;;;;;;;;;;;;;;;;;;4948853;28;1374;-72
2022/12/19 00:40:50;;;;;;;;;;;;;;;;;;4957973;29;902;-72
2022/12/19 00:43:17;;;;;;;;;;;;;;;;;;4957103;28;1072;-72
2022/12/19 00:45:43;;;;;;;;;;;;;;;;;;4958003;29;964;-72
2022/12/19 00:48:09;;;;;;;;;;;;;;;;;;4957487;28;1282;-72
2022/12/19 00:50:35;;;;;;;;;;;;;;;;;;4956511;28;1296;-70
2022/12/19 00:53:01;;;;;;;;;;;;;;;;;;4956440;28;1972;-72
2022/12/19 00:55:29;;;;;;;;;;;;;;;;;;4956180;29;1158;-72
2022/12/19 00:57:55;;;;;;;;;;;;;;;;;;4972170;28;1317;-72
2022/12/19 01:00:21;;;;;;;;;;;;;;;;;;4972411;28;1421;-72
2022/12/19 01:02:48;;;;;;;;;;;;;;;;;;4955247;28;1130;-73
2022/12/19 01:05:14;;;;;;;;;;;;;;;;;;4966420;28;1118;-72
2022/12/19 01:07:40;;;;;;;;;;;;;;;;;;4949143;28;1377;-71
2022/12/19 01:10:07;;;;;;;;;;;;;;;;;;4955913;28;1140;-71
2022/12/19 01:12:46;;;;;;;;;;;;;;;;;;4956484;28;1916;-73
2022/12/19 01:15:13;;;;;;;;;;;;;;;;;;4957286;29;1001;-72
2022/12/19 01:17:39;;;;;;;;;;;;;;;;;;4971785;28;1310;-72
2022/12/19 01:20:06;;;;;;;;;;;;;;;;;;4939519;29;1126;-74
2022/12/19 01:22:32;;;;;;;;;;;;;;;;;;4951592;28;1129;-72
2022/12/19 01:24:59;;;;;;;;;;;;;;;;;;4968565;28;2062;-72
2022/12/19 01:27:25;;;;;;;;;;;;;;;;;;4937128;29;1485;-71
2022/12/19 01:29:53;;;;;;;;;;;;;;;;;;4952146;28;1497;-72
2022/12/19 01:32:19;;;;;;;;;;;;;;;;;;4937085;29;1911;-73
2022/12/19 01:34:45;;;;;;;;;;;;;;;;;;4937690;29;1077;-72
2022/12/19 01:37:11;;;;;;;;;;;;;;;;;;4962308;28;1335;-72
2022/12/19 01:39:38;;;;;;;;;;;;;;;;;;4933809;28;1352;-72
2022/12/19 01:42:05;;;;;;;;;;;;;;;;;;4933118;29;1238;-73
2022/12/19 01:44:31;;;;;;;;;;;;;;;;;;4936747;29;1233;-72
2022/12/19 01:46:59;;;;;;;;;;;;;;;;;;4916890;29;967;-73
2022/12/19 01:49:26;;;;;;;;;;;;;;;;;;4916037;29;1464;-73
2022/12/19 01:51:52;;;;;;;;;;;;;;;;;;4915747;29;915;-72
2022/12/19 01:54:20;;;;;;;;;;;;;;;;;;4916551;29;1968;-73
2022/12/19 01:56:48;;;;;;;;;;;;;;;;;;4915157;29;1143;-71
2022/12/19 01:59:16;;;;;;;;;;;;;;;;;;4915204;29;1306;-72
2022/12/19 02:01:42;;;;;;;;;;;;;;;;;;4915369;29;2426;-71
2022/12/19 02:04:10;;;;;;;;;;;;;;;;;;4932581;29;1393;-72
2022/12/19 02:06:36;;;;;;;;;;;;;;;;;;4944938;29;1101;-71
2022/12/19 02:09:03;;;;;;;;;;;;;;;;;;4952172;28;1476;-72
2022/12/19 02:11:32;;;;;;;;;;;;;;;;;;4954281;28;1299;-72
2022/12/19 02:13:58;;;;;;;;;;;;;;;;;;4954438;28;1974;-72
2022/12/19 02:16:29;;;;;;;;;;;;;;;;;;4971079;28;1402;-72
2022/12/19 02:18:57;;;;;;;;;;;;;;;;;;4970609;28;1303;-73
2022/12/19 02:21:30;;;;;;;;;;;;;;;;;;4955266;28;857;-72
2022/12/19 02:24:02;;;;;;;;;;;;;;;;;;4954428;29;1361;-72
2022/12/19 02:26:38;;;;;;;;;;;;;;;;;;4954788;29;1480;-72
2022/12/19 02:29:09;;;;;;;;;;;;;;;;;;4970826;28;1376;-72
2022/12/19 02:31:38;;;;;;;;;;;;;;;;;;4954174;28;1674;-73
2022/12/19 02:34:08;;;;;;;;;;;;;;;;;;4954770;29;1926;-72
2022/12/19 02:36:40;;;;;;;;;;;;;;;;;;4954616;28;1034;-73
2022/12/19 02:39:07;;;;;;;;;;;;;;;;;;4952382;28;1512;-72
2022/12/19 02:41:42;;;;;;;;;;;;;;;;;;4954489;29;1413;-73
2022/12/19 02:44:10;;;;;;;;;;;;;;;;;;4963733;28;1302;-73
2022/12/19 02:46:37;;;;;;;;;;;;;;;;;;4964035;29;1177;-75
2022/12/19 02:49:04;;;;;;;;;;;;;;;;;;4971084;28;1330;-73
2022/12/19 02:51:30;;;;;;;;;;;;;;;;;;4953621;29;2224;-73
2022/12/19 02:53:57;;;;;;;;;;;;;;;;;;4953827;28;1903;-73
2022/12/19 02:56:28;;;;;;;;;;;;;;;;;;4955452;29;915;-73
2022/12/19 02:59:00;;;;;;;;;;;;;;;;;;4954038;28;1483;-72
2022/12/19 03:01:30;;;;;;;;;;;;;;;;;;4953349;28;1173;-72
2022/12/19 03:03:59;;;;;;;;;;;;;;;;;;4955494;28;965;-72
2022/12/19 03:06:26;;;;;;;;;;;;;;;;;;4960204;28;1245;-73
2022/12/19 03:08:53;;;;;;;;;;;;;;;;;;4966445;28;1463;-72
2022/12/19 03:11:20;;;;;;;;;;;;;;;;;;4969784;28;925;-72
2022/12/19 03:13:48;;;;;;;;;;;;;;;;;;4970628;28;1910;-71
2022/12/19 03:16:14;;;;;;;;;;;;;;;;;;4954179;28;1174;-73
2022/12/19 03:18:40;;;;;;;;;;;;;;;;;;4970143;28;1305;-75
2022/12/19 03:21:09;;;;;;;;;;;;;;;;;;4955169;29;943;-72
2022/12/19 03:23:35;;;;;;;;;;;;;;;;;;4954436;29;918;-74
2022/12/19 03:26:02;;;;;;;;;;;;;;;;;;4969747;28;1103;-73
2022/12/19 03:28:31;;;;;;;;;;;;;;;;;;4951972;28;1456;-71
2022/12/19 03:30:57;;;;;;;;;;;;;;;;;;4934539;29;1502;-72
2022/12/19 03:33:24;;;;;;;;;;;;;;;;;;4950253;29;1907;-74
2022/12/19 03:35:50;;;;;;;;;;;;;;;;;;4947325;29;1009;-73
2022/12/19 03:38:17;;;;;;;;;;;;;;;;;;4972531;28;1477;-73
2022/12/19 03:40:44;;;;;;;;;;;;;;;;;;4951813;28;1345;-72
2022/12/19 03:43:09;;;;;;;;;;;;;;;;;;4945732;29;1411;-72
2022/12/19 03:45:40;;;;;;;;;;;;;;;;;;4935649;29;1077;-72
2022/12/19 03:48:07;;;;;;;;;;;;;;;;;;4935446;29;1307;-72
2022/12/19 03:50:35;;;;;;;;;;;;;;;;;;4936392;29;1073;-72
2022/12/19 03:53:02;;;;;;;;;;;;;;;;;;4938333;29;1966;-74
2022/12/19 03:55:31;;;;;;;;;;;;;;;;;;4939552;29;761;-73
2022/12/19 03:57:58;;;;;;;;;;;;;;;;;;4939210;29;1368;-75
2022/12/19 04:00:25;;;;;;;;;;;;;;;;;;4938401;29;1382;-72
2022/12/19 04:02:51;;;;;;;;;;;;;;;;;;4938689;29;986;-72
2022/12/19 04:05:18;;;;;;;;;;;;;;;;;;4942290;29;1033;-72
2022/12/19 04:07:45;;;;;;;;;;;;;;;;;;4950207;28;1378;-71
2022/12/19 04:10:15;;;;;;;;;;;;;;;;;;4957147;29;1324;-72
2022/12/19 04:12:45;;;;;;;;;;;;;;;;;;4957621;28;1021;-71
2022/12/19 04:15:11;;;;;;;;;;;;;;;;;;4958308;28;1922;-72
2022/12/19 04:17:38;;;;;;;;;;;;;;;;;;4958250;28;1282;-72
2022/12/19 04:20:06;;;;;;;;;;;;;;;;;;4973028;28;1232;-71
2022/12/19 04:22:34;;;;;;;;;;;;;;;;;;4956098;29;1277;-72
2022/12/19 04:25:03;;;;;;;;;;;;;;;;;;4958084;28;772;-73
2022/12/19 04:27:30;;;;;;;;;;;;;;;;;;4972938;28;1363;-74
2022/12/19 04:29:58;;;;;;;;;;;;;;;;;;4959255;28;1018;-73
2022/12/19 04:32:24;;;;;;;;;;;;;;;;;;4974005;28;1313;-73
2022/12/19 04:34:50;;;;;;;;;;;;;;;;;;4969747;28;1914;-74
2022/12/19 04:37:16;;;;;;;;;;;;;;;;;;4949317;29;1299;-74
2022/12/19 04:39:42;;;;;;;;;;;;;;;;;;4958166;28;1467;-74
2022/12/19 04:42:09;;;;;;;;;;;;;;;;;;4939167;28;1710;-73
2022/12/19 04:44:35;;;;;;;;;;;;;;;;;;4943274;29;1106;-74
2022/12/19 04:47:02;;;;;;;;;;;;;;;;;;4950034;28;1155;-73
2022/12/19 04:49:29;;;;;;;;;;;;;;;;;;4958418;28;1382;-72
2022/12/19 04:51:55;;;;;;;;;;;;;;;;;;4956259;28;1237;-72
2022/12/19 04:54:21;;;;;;;;;;;;;;;;;;4972433;28;1914;-73
2022/12/19 04:56:47;;;;;;;;;;;;;;;;;;4958478;28;1125;-72
2022/12/19 04:59:13;;;;;;;;;;;;;;;;;;4956451;28;1301;-72
2022/12/19 05:01:40;;;;;;;;;;;;;;;;;;4956538;28;1009;-71
2022/12/19 05:04:07;;;;;;;;;;;;;;;;;;4953411;28;1434;-71
2022/12/19 05:06:33;;;;;;;;;;;;;;;;;;4936526;29;1439;-71
2022/12/19 05:09:00;;;;;;;;;;;;;;;;;;4954299;28;1478;-72
2022/12/19 05:11:26;;;;;;;;;;;;;;;;;;4971211;28;1204;-72
2022/12/19 05:13:52;;;;;;;;;;;;;;;;;;4956618;29;1907;-73
2022/12/19 05:16:18;;;;;;;;;;;;;;;;;;4958393;28;1124;-72
2022/12/19 05:18:44;;;;;;;;;;;;;;;;;;4973314;28;1356;-73
2022/12/19 05:21:12;;;;;;;;;;;;;;;;;;4942556;28;1509;-73
2022/12/19 05:23:38;;;;;;;;;;;;;;;;;;4938911;29;1037;-73
2022/12/19 05:26:05;;;;;;;;;;;;;;;;;;4938074;29;1367;-72
2022/12/19 05:28:31;;;;;;;;;;;;;;;;;;4939186;29;1402;-72
2022/12/19 05:31:06;;;;;;;;;;;;;;;;;;4900329;29;1373;-74
2022/12/19 05:33:33;;;;;;;;;;;;;;;;;;4852595;29;1946;-73
2022/12/19 05:36:00;;;;;;;;;;;;;;;;;;4835736;29;1371;-76
2022/12/19 05:38:29;;;;;;;;;;;;;;;;;;4847290;28;1455;-75
2022/12/19 05:40:56;;;;;;;;;;;;;;;;;;4836883;29;1686;-75
2022/12/19 05:43:24;;;;;;;;;;;;;;;;;;4836382;29;2065;-75
2022/12/19 05:45:51;;;;;;;;;;;;;;;;;;4832176;29;1100;-75
2022/12/19 05:48:18;;;;;;;;;;;;;;;;;;4851304;28;1370;-75
2022/12/19 05:50:48;;;;;;;;;;;;;;;;;;4855592;29;1069;-75
2022/12/19 05:53:14;;;;;;;;;;;;;;;;;;4867372;28;1470;-73
2022/12/19 05:55:42;;;;;;;;;;;;;;;;;;4916290;29;1923;-74
2022/12/19 05:58:09;;;;;;;;;;;;;;;;;;4961986;28;1612;-72
2022/12/19 06:00:35;;;;;;;;;;;;;;;;;;4960371;28;1257;-71
2022/12/19 06:03:02;;;;;;;;;;;;;;;;;;4964734;28;1140;-71
2022/12/19 06:05:28;;;;;;;;;;;;;;;;;;4950380;28;1430;-72
2022/12/19 06:07:54;;;;;;;;;;;;;;;;;;4937341;29;1456;-72
2022/12/19 06:10:21;;;;;;;;;;;;;;;;;;4939356;29;1242;-70
2022/12/19 06:12:48;;;;;;;;;;;;;;;;;;4941060;29;1434;-73
2022/12/19 06:15:15;;;;;;;;;;;;;;;;;;4945948;28;1919;-73
2022/12/19 06:17:41;;;;;;;;;;;;;;;;;;4947136;29;1319;-73
2022/12/19 06:20:08;;;;;;;;;;;;;;;;;;4942387;29;1025;-73
2022/12/19 06:22:34;;;;;;;;;;;;;;;;;;4940236;29;1174;-72
2022/12/19 06:25:00;;;;;;;;;;;;;;;;;;4934680;29;1841;-72
2022/12/19 06:27:27;;;;;;;;;;;;;;;;;;4920174;28;1382;-72
2022/12/19 06:29:54;;;;;;;;;;;;;;;;;;4943836;28;1378;-72
2022/12/19 06:32:21;;;;;;;;;;;;;;;;;;4936492;29;1309;-72
2022/12/19 06:34:47;;;;;;;;;;;;;;;;;;4936040;29;1895;-71
2022/12/19 06:37:13;;;;;;;;;;;;;;;;;;4936045;29;1424;-71
2022/12/19 06:39:39;;;;;;;;;;;;;;;;;;4944480;28;1672;-73
2022/12/19 06:42:23;;;;;;;;;;;;;;;;;;4939148;28;1705;-74
2022/12/19 06:44:49;;;;;;;;;;;;;;;;;;4948229;28;1449;-73
2022/12/19 06:47:17;;;;;;;;;;;;;;;;;;4937445;29;1411;-72
2022/12/19 06:49:43;;;;;;;;;;;;;;;;;;4955908;28;1303;-72
2022/12/19 06:52:09;;;;;;;;;;;;;;;;;;4956201;29;1231;-73
2022/12/19 06:54:36;;;;;;;;;;;;;;;;;;4937576;28;1915;-72
2022/12/19 06:57:02;;;;;;;;;;;;;;;;;;4935698;29;1477;-72
2022/12/19 06:59:28;;;;;;;;;;;;;;;;;;4946375;28;1315;-72
2022/12/19 07:01:57;;;;;;;;;;;;;;;;;;4951612;29;1471;-74
2022/12/19 07:04:26;;;;;;;;;;;;;;;;;;4944167;29;1492;-73
2022/12/19 07:06:53;;;;;;;;;;;;;;;;;;4948644;28;1490;-73
2022/12/19 07:09:19;;;;;;;;;;;;;;;;;;4958237;28;1303;-74
2022/12/19 07:11:45;;;;;;;;;;;;;;;;;;4933095;29;1422;-73
2022/12/19 07:14:12;;;;;;;;;;;;;;;;;;4935304;29;1903;-74
2022/12/19 07:16:38;;;;;;;;;;;;;;;;;;4935591;29;1052;-73
2022/12/19 07:19:04;;;;;;;;;;;;;;;;;;4935697;29;1302;-73
2022/12/19 07:21:32;;;;;;;;;;;;;;;;;;4933540;29;1153;-73
2022/12/19 07:23:58;;;;;;;;;;;;;;;;;;4941219;29;1455;-73
2022/12/19 07:26:24;;;;;;;;;;;;;;;;;;4934460;29;1699;-73
2022/12/19 07:28:50;;;;;;;;;;;;;;;;;;4944328;29;1300;-72
2022/12/19 07:31:17;;;;;;;;;;;;;;;;;;4938232;29;1466;-71
2022/12/19 07:33:43;;;;;;;;;;;;;;;;;;4949388;28;1151;-71
2022/12/19 07:36:09;;;;;;;;;;;;;;;;;;4949197;29;1911;-72
2022/12/19 07:38:36;;;;;;;;;;;;;;;;;;4939258;29;1682;-73
2022/12/19 07:41:03;;;;;;;;;;;;;;;;;;4938898;29;1621;-74
2022/12/19 07:43:29;;;;;;;;;;;;;;;;;;4959012;28;1449;-73
2022/12/19 07:45:55;;;;;;;;;;;;;;;;;;4954471;28;1462;-72
2022/12/19 07:48:22;;;;;;;;;;;;;;;;;;4951951;28;1421;-73
2022/12/19 07:50:48;;;;;;;;;;;;;;;;;;4953832;28;1429;-73
2022/12/19 07:53:14;;;;;;;;;;;;;;;;;;4941546;28;1422;-73
2022/12/19 07:55:42;;;;;;;;;;;;;;;;;;4931592;28;1911;-73
2022/12/19 07:58:09;;;;;;;;;;;;;;;;;;4932442;29;1473;-73
2022/12/19 08:00:36;;;;;;;;;;;;;;;;;;4950721;28;1343;-73
2022/12/19 08:03:02;;;;;;;;;;;;;;;;;;4941879;29;1172;-73
2022/12/19 08:05:28;;;;;;;;;;;;;;;;;;4948482;28;1065;-72
2022/12/19 08:07:55;;;;;;;;;;;;;;;;;;4934696;29;1531;-73
2022/12/19 08:10:21;;;;;;;;;;;;;;;;;;4948529;29;1174;-72
2022/12/19 08:12:49;;;;;;;;;;;;;;;;;;4939691;29;1419;-73
2022/12/19 08:15:15;;;;;;;;;;;;;;;;;;4959771;28;1973;-73
2022/12/19 08:17:42;;;;;;;;;;;;;;;;;;4953766;28;1306;-73
2022/12/19 08:20:10;;;;;;;;;;;;;;;;;;4954944;28;665;-72
2022/12/19 08:22:36;;;;;;;;;;;;;;;;;;4954811;28;1160;-72
2022/12/19 08:25:02;;;;;;;;;;;;;;;;;;4948679;29;1418;-72
2022/12/19 08:27:28;;;;;;;;;;;;;;;;;;4930826;29;1889;-72
2022/12/19 08:29:56;;;;;;;;;;;;;;;;;;4930648;29;1352;-73
2022/12/19 08:32:22;;;;;;;;;;;;;;;;;;4931294;29;1423;-74
2022/12/19 08:34:48;;;;;;;;;;;;;;;;;;4935961;29;1981;-74
2022/12/19 08:37:15;;;;;;;;;;;;;;;;;;4945597;28;1222;-74
2022/12/19 08:39:41;;;;;;;;;;;;;;;;;;4950804;28;1515;-74
2022/12/19 08:42:07;;;;;;;;;;;;;;;;;;4946675;28;1407;-74
2022/12/19 08:44:33;;;;;;;;;;;;;;;;;;4944578;28;1100;-74
2022/12/19 08:47:01;;;;;;;;;;;;;;;;;;4946217;28;1179;-74
2022/12/19 08:49:27;;;;;;;;;;;;;;;;;;4937313;29;1454;-74
2022/12/19 08:51:53;;;;;;;;;;;;;;;;;;4940146;29;1406;-73
2022/12/19 08:54:19;;;;;;;;;;;;;;;;;;4942443;29;1387;-73
2022/12/19 08:56:46;;;;;;;;;;;;;;;;;;4949276;29;1914;-74
2022/12/19 08:59:12;;;;;;;;;;;;;;;;;;4955871;28;1322;-75
2022/12/19 09:01:39;;;;;;;;;;;;;;;;;;4944895;28;1493;-75
2022/12/19 09:04:06;;;;;;;;;;;;;;;;;;4935233;29;1394;-74
2022/12/19 09:06:32;;;;;;;;;;;;;;;;;;4937833;29;1303;-73
2022/12/19 09:08:58;;;;;;;;;;;;;;;;;;4937548;28;1448;-74
2022/12/19 09:11:25;;;;;;;;;;;;;;;;;;4946142;29;1731;-75
2022/12/19 09:13:51;;;;;;;;;;;;;;;;;;4937780;29;1305;-74
2022/12/19 09:16:18;;;;;;;;;;;;;;;;;;4937337;29;1918;-74
2022/12/19 09:18:45;;;;;;;;;;;;;;;;;;4939178;29;1267;-74
2022/12/19 09:21:13;;;;;;;;;;;;;;;;;;4953540;29;1355;-74
2022/12/19 09:23:39;;;;;;;;;;;;;;;;;;4947621;29;1438;-74
2022/12/19 09:26:06;;;;;;;;;;;;;;;;;;4954665;29;1637;-75
2022/12/19 09:28:32;;;;;;;;;;;;;;;;;;4961635;28;1361;-73
2022/12/19 09:31:00;;;;;;;;;;;;;;;;;;4936139;29;1573;-73
2022/12/19 09:33:26;;;;;;;;;;;;;;;;;;4934848;29;1511;-73
2022/12/19 09:35:53;;;;;;;;;;;;;;;;;;4935257;29;1903;-73
2022/12/19 09:38:20;;;;;;;;;;;;;;;;;;4939835;29;1282;-75
2022/12/19 09:40:52;;;;;;;;;;;;;;;;;;4946533;28;997;-74
2022/12/19 09:43:20;;;;;;;;;;;;;;;;;;4936522;29;1077;-74
2022/12/19 09:45:48;;;;;;;;;;;;;;;;;;4937431;29;1124;-75
2022/12/19 09:48:15;;;;;;;;;;;;;;;;;;4934816;29;1294;-74
2022/12/19 09:50:44;;;;;;;;;;;;;;;;;;4935849;29;1440;-75
2022/12/19 09:53:12;;;;;;;;;;;;;;;;;;4945986;29;1417;-74
2022/12/19 09:55:41;;;;;;;;;;;;;;;;;;4942478;28;1906;-75
2022/12/19 09:58:08;;;;;;;;;;;;;;;;;;4951771;28;1307;-74
2022/12/19 10:00:35;;;;;;;;;;;;;;;;;;4936442;29;1412;-74
2022/12/19 10:03:02;;;;;;;;;;;;;;;;;;4934437;29;1679;-71
2022/12/19 10:05:30;;;;;;;;;;;;;;;;;;4936680;29;1707;-74
2022/12/19 10:07:56;;;;;;;;;;;;;;;;;;4935638;29;1581;-73
2022/12/19 10:10:25;;;;;;;;;;;;;;;;;;4936625;29;1744;-73
2022/12/19 10:12:56;;;;;;;;;;;;;;;;;;4934462;29;1463;-74
2022/12/19 10:15:23;;;;;;;;;;;;;;;;;;4943826;28;1977;-74
2022/12/19 10:18:04;;;;;;;;;;;;;;;;;;4964734;28;2288;-74
2022/12/19 10:20:31;;;;;;;;;;;;;;;;;;4951326;29;1489;-74
2022/12/19 10:23:04;;;;;;;;;;;;;;;;;;4946573;29;1148;-75
2022/12/19 10:25:38;;;;;;;;;;;;;;;;;;4936709;29;1260;-75
2022/12/19 10:28:09;;;;;;;;;;;;;;;;;;4937135;29;1393;-72
2022/12/19 10:30:35;;;;;;;;;;;;;;;;;;4934164;29;1767;-74
2022/12/19 10:33:03;;;;;;;;;;;;;;;;;;4942462;29;1307;-73
2022/12/19 10:35:31;;;;;;;;;;;;;;;;;;4940958;29;1922;-72
2022/12/19 10:37:59;;;;;;;;;;;;;;;;;;4939565;29;1527;-73
2022/12/19 10:40:26;;;;;;;;;;;;;;;;;;4942404;29;2094;-76
2022/12/19 10:42:53;;;;;;;;;;;;;;;;;;4944549;28;1836;-75
2022/12/19 10:45:22;;;;;;;;;;;;;;;;;;4941208;29;1561;-75
2022/12/19 10:47:49;;;;;;;;;;;;;;;;;;4943309;28;1672;-73
2022/12/19 10:50:17;;;;;;;;;;;;;;;;;;4949049;28;1243;-73
2022/12/19 10:52:49;;;;;;;;;;;;;;;;;;4934378;29;1735;-72
2022/12/19 10:55:22;;;;;;;;;;;;;;;;;;4947421;29;1911;-73
2022/12/19 10:57:49;;;;;;;;;;;;;;;;;;4945386;28;1503;-73
2022/12/19 11:00:16;;;;;;;;;;;;;;;;;;4934500;29;1121;-73
2022/12/19 11:02:44;;;;;;;;;;;;;;;;;;4953382;28;1585;-75
2022/12/19 11:05:22;;;;;;;;;;;;;;;;;;4941077;29;1226;-74
2022/12/19 11:07:58;;;;;;;;;;;;;;;;;;4947085;28;1295;-74
2022/12/19 11:10:35;;;;;;;;;;;;;;;;;;4954717;28;1141;-73
2022/12/19 11:13:01;;;;;;;;;;;;;;;;;;4950831;28;1787;-73
2022/12/19 11:15:28;;;;;;;;;;;;;;;;;;4938492;29;1907;-73
2022/12/19 11:17:56;;;;;;;;;;;;;;;;;;4935712;29;1319;-74
2022/12/19 11:20:23;;;;;;;;;;;;;;;;;;4935917;29;1854;-74
2022/12/19 11:22:51;;;;;;;;;;;;;;;;;;4941975;28;1981;-73
2022/12/19 11:25:18;;;;;;;;;;;;;;;;;;4946807;29;1247;-72
2022/12/19 11:27:45;;;;;;;;;;;;;;;;;;4969452;28;1370;-73
2022/12/19 11:30:18;;;;;;;;;;;;;;;;;;4953614;28;1060;-74
2022/12/19 11:32:46;;;;;;;;;;;;;;;;;;4931815;29;1814;-73
2022/12/19 11:35:18;;;;;;;;;;;;;;;;;;4935232;29;1136;-73
2022/12/19 11:37:46;;;;;;;;;;;;;;;;;;4943228;29;1918;-72
2022/12/19 11:40:13;;;;;;;;;;;;;;;;;;4935180;29;982;-74
2022/12/19 11:42:44;;;;;;;;;;;;;;;;;;4934023;29;1835;-74
2022/12/19 11:45:12;;;;;;;;;;;;;;;;;;4945055;29;1081;-74
2022/12/19 11:47:39;;;;;;;;;;;;;;;;;;4954671;28;1303;-74
2022/12/19 11:50:09;;;;;;;;;;;;;;;;;;4954616;28;998;-74
2022/12/19 11:52:38;;;;;;;;;;;;;;;;;;4935133;29;1779;-73
2022/12/19 11:55:05;;;;;;;;;;;;;;;;;;4942481;28;1442;-73
2022/12/19 11:57:31;;;;;;;;;;;;;;;;;;4942463;29;1974;-72
2022/12/19 11:59:57;;;;;;;;;;;;;;;;;;4951424;28;1172;-74
2022/12/19 12:02:39;;;;;;;;;;;;;;;;;;4945259;29;1470;-74
2022/12/19 12:05:08;;;;;;;;;;;;;;;;;;4932726;29;2313;-74
2022/12/19 12:07:35;;;;;;;;;;;;;;;;;;4934926;29;1779;-73
2022/12/19 12:10:05;;;;;;;;;;;;;;;;;;4941067;29;1898;-74
2022/12/19 12:12:32;;;;;;;;;;;;;;;;;;4936283;29;1827;-73
2022/12/19 12:15:03;;;;;;;;;;;;;;;;;;4942611;29;1168;-73
2022/12/19 12:17:36;;;;;;;;;;;;;;;;;;4928508;29;1914;-72
2022/12/19 12:20:13;;;;;;;;;;;;;;;;;;4936988;29;1423;-74
2022/12/19 12:22:48;;;;;;;;;;;;;;;;;;4937479;29;1458;-74
2022/12/19 12:25:23;;;;;;;;;;;;;;;;;;4949728;28;1156;-74
2022/12/19 12:27:51;;;;;;;;;;;;;;;;;;4946689;28;1449;-74
2022/12/19 12:30:18;;;;;;;;;;;;;;;;;;4942063;28;1561;-73
2022/12/19 12:32:49;;;;;;;;;;;;;;;;;;4951984;28;1561;-74
2022/12/19 12:35:18;;;;;;;;;;;;;;;;;;4938350;29;1433;-74
2022/12/19 12:37:47;;;;;;;;;;;;;;;;;;4939534;29;1903;-73
2022/12/19 12:40:34;;;;;;;;;;;;;;;;;;4943301;29;1469;-73
2022/12/19 12:43:04;;;;;;;;;;;;;;;;;;4942614;28;1807;-73
2022/12/19 12:45:31;;;;;;;;;;;;;;;;;;4939974;29;1442;-74
2022/12/19 12:47:57;;;;;;;;;;;;;;;;;;4936091;29;1334;-74
2022/12/19 12:50:24;;;;;;;;;;;;;;;;;;4947170;29;1152;-75
2022/12/19 12:52:52;;;;;;;;;;;;;;;;;;4934165;29;1482;-76
2022/12/19 12:55:20;;;;;;;;;;;;;;;;;;4934637;29;1410;-74
2022/12/19 12:57:46;;;;;;;;;;;;;;;;;;4932941;29;1919;-75
2022/12/19 13:00:18;;;;;;;;;;;;;;;;;;4929013;29;1142;-75
2022/12/19 13:02:45;;;;;;;;;;;;;;;;;;4920358;29;1244;-74
2022/12/19 13:05:17;;;;;;;;;;;;;;;;;;4934418;29;1581;-76
2022/12/19 13:07:45;;;;;;;;;;;;;;;;;;4937004;28;1527;-75
2022/12/19 13:10:16;;;;;;;;;;;;;;;;;;4933947;28;1861;-75
2022/12/19 13:13:01;;;;;;;;;;;;;;;;;;4936276;29;1578;-75
2022/12/19 13:15:36;;;;;;;;;;;;;;;;;;4931335;29;1446;-75
2022/12/19 13:18:12;;;;;;;;;;;;;;;;;;4938275;29;1986;-76
2022/12/19 13:20:41;;;;;;;;;;;;;;;;;;4945053;29;1948;-77
2022/12/19 13:23:21;;;;;;;;;;;;;;;;;;4938197;29;1188;-76
2022/12/19 13:25:48;;;;;;;;;;;;;;;;;;4932132;29;1450;-77
2022/12/19 13:28:15;;;;;;;;;;;;;;;;;;4932664;29;1433;-76
2022/12/19 13:30:57;;;;;;;;;;;;;;;;;;4947427;28;1540;-76
2022/12/19 13:33:24;;;;;;;;;;;;;;;;;;4927599;29;1477;-75
2022/12/19 13:35:51;;;;;;;;;;;;;;;;;;4927077;29;1518;-74
2022/12/19 13:38:18;;;;;;;;;;;;;;;;;;4945976;29;1985;-74
2022/12/19 13:40:53;;;;;;;;;;;;;;;;;;4937240;29;1308;-74
2022/12/19 13:46:05;;;;;;;;;;;;;;;;;;4932098;29;1870;-74
2022/12/19 13:48:33;;;;;;;;;;;;;;;;;;4948153;28;1557;-74
2022/12/19 13:51:00;;;;;;;;;;;;;;;;;;4939874;29;1608;-75
2022/12/19 13:53:28;;;;;;;;;;;;;;;;;;4932938;29;1653;-75
2022/12/19 13:55:55;;;;;;;;;;;;;;;;;;4937007;29;1461;-73
2022/12/19 13:58:23;;;;;;;;;;;;;;;;;;4941475;28;1915;-72
2022/12/19 14:00:49;;;;;;;;;;;;;;;;;;4935175;29;1589;-73
2022/12/19 14:03:17;;;;;;;;;;;;;;;;;;4945462;28;1147;-74
2022/12/19 14:05:44;;;;;;;;;;;;;;;;;;4939700;28;1497;-75
2022/12/19 14:08:11;;;;;;;;;;;;;;;;;;4939128;29;1601;-75
2022/12/19 14:10:39;;;;;;;;;;;;;;;;;;4933059;29;1784;-74
2022/12/19 14:15:51;;;;;;;;;;;;;;;;;;4933035;29;1593;-73
2022/12/19 14:18:18;;;;;;;;;;;;;;;;;;4943952;28;1914;-73
2022/12/19 14:20:46;;;;;;;;;;;;;;;;;;4929179;29;1867;-72
2022/12/19 14:23:12;;;;;;;;;;;;;;;;;;4945822;29;1586;-74
2022/12/19 14:25:39;;;;;;;;;;;;;;;;;;4941929;28;1069;-73
2022/12/19 14:28:06;;;;;;;;;;;;;;;;;;4923683;29;1508;-73
2022/12/19 14:30:33;;;;;;;;;;;;;;;;;;4947513;29;1093;-74
2022/12/19 14:32:59;;;;;;;;;;;;;;;;;;4946870;29;1123;-75
2022/12/19 14:35:27;;;;;;;;;;;;;;;;;;4940968;29;1584;-73
2022/12/19 14:37:59;;;;;;;;;;;;;;;;;;4932060;29;1919;-74
2022/12/19 14:40:26;;;;;;;;;;;;;;;;;;4935243;29;1376;-75
2022/12/19 14:45:40;;;;;;;;;;;;;;;;;;4939855;29;1060;-74
2022/12/19 14:48:21;;;;;;;;;;;;;;;;;;4923040;29;1301;-73
2022/12/19 14:50:47;;;;;;;;;;;;;;;;;;4928353;29;1498;-74
2022/12/19 14:53:17;;;;;;;;;;;;;;;;;;4931442;29;1538;-76
2022/12/19 14:55:45;;;;;;;;;;;;;;;;;;4930096;29;1704;-75
2022/12/19 14:58:14;;;;;;;;;;;;;;;;;;4950098;28;1888;-75
2022/12/19 15:00:44;;;;;;;;;;;;;;;;;;4945222;29;1488;-76
2022/12/19 15:03:12;;;;;;;;;;;;;;;;;;4937069;29;1568;-75
2022/12/19 15:05:38;;;;;;;;;;;;;;;;;;4940671;29;1267;-74
2022/12/19 15:08:08;;;;;;;;;;;;;;;;;;4939622;28;1335;-75
2022/12/19 15:10:37;;;;;;;;;;;;;;;;;;4942021;28;1316;-76
2022/12/19 15:13:22;;;;;;;;;;;;;;;;;;4927217;29;1327;-75
2022/12/19 15:15:53;;;;;;;;;;;;;;;;;;4935790;29;1115;-75
2022/12/19 15:18:21;;;;;;;;;;;;;;;;;;4930559;29;1915;-75
2022/12/19 15:20:47;;;;;;;;;;;;;;;;;;4935667;29;1660;-74
2022/12/19 15:23:14;;;;;;;;;;;;;;;;;;4936159;29;1206;-75
2022/12/19 15:25:41;;;;;;;;;;;;;;;;;;4943829;28;1647;-74
2022/12/19 15:28:10;;;;;;;;;;;;;;;;;;4931685;29;1629;-75
2022/12/19 15:30:37;;;;;;;;;;;;;;;;;;4934642;29;1926;-75
2022/12/19 15:33:03;;;;;;;;;;;;;;;;;;4944939;28;1155;-74
2022/12/19 15:35:30;;;;;;;;;;;;;;;;;;4933245;28;1216;-74
2022/12/19 15:37:56;;;;;;;;;;;;;;;;;;4929474;29;2364;-75
2022/12/19 15:40:22;;;;;;;;;;;;;;;;;;4927260;28;1291;-73
2022/12/19 15:42:50;;;;;;;;;;;;;;;;;;4939690;29;1866;-73
2022/12/19 15:45:18;;;;;;;;;;;;;;;;;;4941643;28;1819;-74
2022/12/19 15:47:44;;;;;;;;;;;;;;;;;;4955456;28;1387;-73
2022/12/19 15:50:15;;;;;;;;;;;;;;;;;;4937180;29;1803;-74
2022/12/19 15:52:41;;;;;;;;;;;;;;;;;;4939823;29;1207;-73
2022/12/19 15:55:09;;;;;;;;;;;;;;;;;;4935464;29;1077;-74
2022/12/19 15:57:36;;;;;;;;;;;;;;;;;;4933576;29;1967;-74
2022/12/19 16:00:06;;;;;;;;;;;;;;;;;;4943377;29;1259;-75
2022/12/19 16:02:32;;;;;;;;;;;;;;;;;;4942652;29;1152;-74
2022/12/19 16:04:59;;;;;;;;;;;;;;;;;;4935496;29;966;-74
2022/12/19 16:07:25;;;;;;;;;;;;;;;;;;4927118;29;1455;-74
2022/12/19 16:09:51;;;;;;;;;;;;;;;;;;4933531;29;1493;-74
2022/12/19 16:12:19;;;;;;;;;;;;;;;;;;4935214;29;1210;-73
2022/12/19 16:14:45;;;;;;;;;;;;;;;;;;4946120;28;1317;-73
2022/12/19 16:17:15;;;;;;;;;;;;;;;;;;4934910;29;1907;-74
2022/12/19 16:19:41;;;;;;;;;;;;;;;;;;4931686;29;1420;-74
2022/12/19 16:22:10;;;;;;;;;;;;;;;;;;4941147;29;1561;-73
2022/12/19 16:24:36;;;;;;;;;;;;;;;;;;4942896;29;1159;-72
2022/12/19 16:27:03;;;;;;;;;;;;;;;;;;4934373;29;1151;-72
2022/12/19 16:29:30;;;;;;;;;;;;;;;;;;4935052;29;1323;-72
2022/12/19 16:31:56;;;;;;;;;;;;;;;;;;4941105;29;1617;-72
2022/12/19 16:34:24;;;;;;;;;;;;;;;;;;4942767;28;1692;-72
2022/12/19 16:36:50;;;;;;;;;;;;;;;;;;4933867;29;1748;-72
2022/12/19 16:39:17;;;;;;;;;;;;;;;;;;4940929;28;1976;-73
2022/12/19 16:41:43;;;;;;;;;;;;;;;;;;4941789;29;1652;-72
2022/12/19 16:44:14;;;;;;;;;;;;;;;;;;4944570;28;1147;-73
2022/12/19 16:46:41;;;;;;;;;;;;;;;;;;4953695;28;1113;-72
2022/12/19 16:49:10;;;;;;;;;;;;;;;;;;4950905;28;1791;-72
2022/12/19 16:51:38;;;;;;;;;;;;;;;;;;4944203;29;1156;-73
2022/12/19 16:54:04;;;;;;;;;;;;;;;;;;4929211;29;1824;-73
2022/12/19 16:56:32;;;;;;;;;;;;;;;;;;4939020;29;1112;-72
2022/12/19 16:59:00;;;;;;;;;;;;;;;;;;4941309;28;1976;-73
2022/12/19 17:01:27;;;;;;;;;;;;;;;;;;4957425;28;2050;-73
2022/12/19 17:03:53;;;;;;;;;;;;;;;;;;4937596;29;1800;-72
2022/12/19 17:06:20;;;;;;;;;;;;;;;;;;4945313;29;1609;-72
2022/12/19 17:08:47;;;;;;;;;;;;;;;;;;4946593;28;1334;-71
2022/12/19 17:11:14;;;;;;;;;;;;;;;;;;4957391;29;1246;-72
2022/12/19 17:13:41;;;;;;;;;;;;;;;;;;4953142;29;1259;-73
2022/12/19 17:16:07;;;;;;;;;;;;;;;;;;4929245;29;1294;-71